PDT,Max TemperatureF,Mean TemperatureF,Min TemperatureF,Max Dew PointF,MeanDew PointF,Min DewpointF,Max Humidity, Mean Humidity, Min Humidity, Max Sea Level PressureIn, Mean Sea Level PressureIn, Min Sea Level PressureIn, Max VisibilityMiles, Mean VisibilityMiles, Min VisibilityMiles, Max Wind SpeedMPH, Mean Wind SpeedMPH, Max Gust SpeedMPH,PrecipitationIn, CloudCover, Events, WindDirDegrees
2012-9-1,70,60,50,53,52,50,100,77,53,30.03,30.00,29.96,9,6,5,20,7,24,0.00,4,,284
2012-9-2,69,61,52,54,53,50,100,80,59,29.99,29.97,29.94,9,4,1,12,4,18,0.00,6,,292
2012-9-3,72,63,53,55,53,52,100,79,57,30.01,29.97,29.94,10,4,0,13,4,,0.00,6,Fog,313
2012-9-4,73,63,53,55,54,52,100,77,53,30.04,30.00,29.96,10,4,0,12,4,16,0.00,5,Fog,293
2012-9-5,75,65,54,57,54,53,100,77,53,30.00,29.98,29.96,10,4,0,14,3,21,0.00,6,Fog,303
2012-9-6,75,66,56,57,56,54,93,75,57,30.01,29.98,29.94,10,7,5,13,4,,0.00,3,,304
2012-9-7,74,65,56,56,54,52,93,70,46,30.06,30.03,30.00,9,7,5,16,6,20,0.00,0,,310
2012-9-8,74,64,54,56,54,52,100,77,53,30.04,29.99,29.94,10,7,2,18,7,24,0.00,3,,302
2012-9-9,75,65,55,55,54,52,93,71,49,29.94,29.91,29.88,10,8,6,16,6,20,0.00,0,,308
2012-9-10,71,62,53,56,54,52,100,81,61,29.95,29.92,29.89,9,6,1,15,6,20,0.00,4,,285
2012-9-11,72,64,55,57,55,54,100,81,61,30.00,29.94,29.88,10,5,1,15,5,17,0.00,6,,301
2012-9-12,77,67,57,63,58,55,100,80,60,30.07,30.03,29.99,10,4,0,17,4,21,0.00,7,Fog,313
2012-9-13,72,65,57,59,57,55,100,83,66,30.10,30.06,30.02,10,4,0,13,4,21,0.00,6,Fog,311
2012-9-14,73,64,54,57,56,53,100,79,57,30.08,30.04,30.01,10,4,0,13,4,26,0.00,4,Fog,315
2012-9-15,76,65,54,57,55,52,100,77,54,30.08,30.04,30.00,10,4,0,12,3,,0.00,2,Fog,305
2012-9-16,70,61,51,56,53,48,100,81,61,30.05,30.03,30.01,10,5,0,18,3,,0.00,4,Fog,302
2012-9-17,67,58,48,54,53,48,100,79,58,30.09,30.04,30.01,10,6,1,14,4,20,T,6,,301
2012-9-18,69,59,49,54,51,46,100,82,63,30.09,30.05,30.02,9,6,2,13,5,30,0.00,4,,289
2012-9-19,72,63,53,54,53,52,100,79,57,30.06,30.03,30.00,8,6,4,18,6,,0.00,4,,293
2012-9-20,73,63,52,55,52,50,93,73,53,30.03,30.00,29.96,7,5,2,16,4,,0.00,4,,288
2012-9-21,75,63,51,56,52,48,93,71,49,29.97,29.93,29.91,7,6,4,13,4,23,T,2,,292
2012-9-22,78,65,52,57,54,50,100,74,47,29.95,29.93,29.90,7,6,4,10,3,,0.00,4,,304
2012-9-23,73,62,51,57,55,50,100,79,57,30.00,29.97,29.93,9,3,0,12,3,,0.00,5,Fog,306
2012-9-24,72,62,51,55,53,51,100,81,61,30.02,29.97,29.93,6,3,0,15,5,20,0.00,5,Fog,304
2012-9-25,71,63,55,54,53,51,93,74,55,29.97,29.93,29.89,9,5,3,14,4,,T,5,,309
2012-9-26,68,61,54,55,54,53,100,82,63,29.93,29.90,29.86,10,4,2,16,4,16,0.00,6,,299
2012-9-27,72,64,55,57,55,54,100,81,61,29.96,29.92,29.87,10,3,1,12,3,,0.00,7,,297
2012-9-28,69,62,55,56,55,53,100,82,63,29.99,29.95,29.91,10,5,2,14,2,,0.00,6,,297
2012-9-29,71,63,54,57,55,54,100,81,61,30.05,30.00,29.94,10,4,0,13,3,16,0.00,6,Fog,298
2012-9-30,78,67,55,58,55,53,100,71,42,30.03,29.99,29.93,10,5,0,13,3,16,0.00,1,Fog,301